This is the latest recevied weather packets stored in our database for station/object KVDF. If no packets are shown the sender has not sent any weather packets the latest 10 day(s).
| Time | Temp. | Humidity | Pressure | Rain* | Wind** | Luminosity | Snow |
|---|---|---|---|---|---|---|---|
| 1777999425 | 26.67° C | 54% | 1016.3 hPa | - | - | - | - |
| 1777998821 | 27.78° C | 51% | 1016.3 hPa | - | - | - | - |
| 1777998224 | 27.78° C | 51% | 1016.3 hPa | - | - | - | - |
| 1777997621 | 27.78° C | 51% | 1016.3 hPa | - | - | - | - |
| 1777997029 | 27.78° C | 51% | 1016.3 hPa | - | - | - | - |
| 1777996424 | 27.78° C | 51% | 1016.3 hPa | - | - | - | - |
| 1777995941 | 27.78° C | 51% | 1016.3 hPa | - | - | - | - |
| 1777995221 | 27.78° C | 51% | 1016.3 hPa | - | - | - | - |
| 1777994622 | 27.78° C | 51% | 1016.3 hPa | - | - | - | - |
| 1777994021 | 26.67° C | 54% | 1016.3 hPa | - | - | - | - |
| 1777993419 | 26.67° C | 54% | 1016.3 hPa | - | - | - | - |
| 1777992820 | 26.67° C | 54% | 1016.3 hPa | - | - | - | - |
| 1777992220 | 26.67° C | 54% | 1016.3 hPa | - | - | - | - |
| 1777991619 | 25.56° C | 57% | 1016.3 hPa | - | - | - | - |
| 1777991021 | 25.56° C | 57% | 1016.3 hPa | - | - | - | - |
| 1777990419 | 25° C | 65% | 1015.9 hPa | - | - | - | - |
| 1777989819 | 25° C | 65% | 1015.9 hPa | - | - | - | - |
| 1777989218 | 23.89° C | 69% | 1015.9 hPa | - | - | - | - |
| 1777988622 | 23.89° C | 69% | 1015.9 hPa | - | - | - | - |
| 1777988019 | 21.67° C | 78% | 1015.9 hPa | - | - | - | - |
| 1777987421 | 21.67° C | 78% | 1015.9 hPa | - | - | - | - |
| 1777986818 | 20.56° C | 83% | 1015.9 hPa | - | - | - | - |
| 1777986219 | 20.56° C | 83% | 1015.9 hPa | - | - | - | - |
| 1777985621 | 20.56° C | 83% | 1015.9 hPa | - | - | - | - |
| 1777985022 | 20.56° C | 83% | 1015.9 hPa | - | - | - | - |
* Rain since midnight (hover to see other rain measurements)
** Current wind speed in m/s (hover to see current wind gust speed)